createdAt,value
2019-02-10T03:08:15.430Z,63.4
2019-02-10T03:09:05.172Z,63.5
2019-02-10T03:09:55.741Z,63.4
2019-02-10T03:10:45.637Z,63.5
2019-02-10T03:11:35.607Z,63.4
2019-02-10T03:12:25.647Z,63.4
2019-02-10T03:13:15.667Z,63.5
2019-02-10T03:14:05.765Z,63.5
2019-02-10T03:14:56.069Z,63.4
2019-02-10T03:15:45.924Z,63.5
2019-02-10T03:16:36.167Z,63.6
2019-02-10T03:17:25.671Z,63.6
2019-02-10T03:18:16.466Z,63.6
2019-02-10T03:19:06.073Z,63.6
2019-02-10T03:19:56.215Z,63.6
2019-02-10T03:20:46.463Z,63.6
2019-02-10T03:21:36.282Z,63.6
2019-02-10T03:22:26.343Z,63.6
2019-02-10T03:23:16.368Z,63.6
2019-02-10T03:24:06.737Z,63.6
2019-02-10T03:24:56.256Z,63.6
2019-02-10T03:25:46.051Z,63.6
2019-02-10T03:26:36.896Z,63.6
2019-02-10T03:27:26.386Z,63.6
2019-02-10T03:28:16.980Z,63.6
2019-02-10T03:29:06.494Z,63.6
2019-02-10T03:29:56.863Z,63.6
2019-02-10T03:30:47.259Z,63.6
2019-02-10T03:31:37.454Z,63.6
2019-02-10T03:32:26.814Z,63.6
2019-02-10T03:33:17.540Z,63.6
2019-02-10T03:34:07.531Z,63.6
2019-02-10T03:34:57.437Z,63.6
2019-02-10T03:35:46.643Z,63.6
2019-02-10T03:36:37.276Z,63.6
2019-02-10T03:37:31.823Z,63.6
2019-02-10T03:38:17.500Z,63.6
2019-02-10T03:39:07.419Z,63.6
2019-02-10T03:39:57.788Z,63.5
2019-02-10T03:40:47.268Z,63.6
2019-02-10T03:41:37.887Z,63.5
2019-02-10T03:42:27.705Z,63.5
2019-02-10T03:43:17.743Z,63.5
2019-02-10T03:44:07.522Z,63.5
2019-02-10T03:44:57.574Z,63.5
2019-02-10T03:45:47.913Z,63.5
2019-02-10T03:46:37.977Z,63.5
2019-02-10T03:47:28.398Z,63.5
2019-02-10T03:48:18.356Z,63.5
2019-02-10T03:49:07.851Z,63.5
2019-02-10T03:49:58.205Z,63.5
2019-02-10T03:50:48.245Z,63.5
2019-02-10T03:51:38.613Z,63.4
2019-02-10T03:52:28.161Z,63.4
2019-02-10T03:53:18.701Z,63.4
2019-02-10T03:54:08.242Z,63.4
2019-02-10T03:54:58.240Z,63.4
2019-02-10T03:55:48.980Z,63.4
2019-02-10T03:56:38.412Z,63.4
2019-02-10T03:57:28.982Z,63.4
2019-02-10T03:58:18.764Z,63.4
2019-02-10T03:59:08.859Z,63.4
2019-02-10T03:59:58.858Z,63.4
2019-02-10T04:00:48.671Z,63.4
2019-02-10T04:01:39.261Z,63.4
2019-02-10T04:02:28.797Z,63.4
2019-02-10T04:03:19.159Z,63.4
2019-02-10T04:04:08.960Z,63.4
2019-02-10T04:04:59.515Z,63.4
2019-02-10T04:05:49.580Z,63.4
2019-02-10T04:06:39.044Z,63.4
2019-02-10T04:07:39.119Z,63.4
2019-02-10T04:08:19.449Z,63.3
2019-02-10T04:09:09.817Z,63.3
2019-02-10T04:09:59.546Z,63.3
2019-02-10T04:10:49.693Z,63.4
2019-02-10T04:11:39.114Z,63.3
2019-02-10T04:12:29.738Z,63.3
2019-02-10T04:13:20.044Z,63.3
2019-02-10T04:14:10.186Z,63.3
2019-02-10T04:14:59.373Z,63.3
2019-02-10T04:15:49.668Z,63.3
2019-02-10T04:16:40.370Z,63.3
2019-02-10T04:17:30.365Z,63.3
2019-02-10T04:18:20.155Z,63.3
2019-02-10T04:19:10.451Z,63.3
2019-02-10T04:20:00.298Z,63.3
2019-02-10T04:20:50.285Z,63.3
2019-02-10T04:21:40.369Z,63.3
2019-02-10T04:22:30.763Z,63.3
2019-02-10T04:23:20.494Z,63.3
2019-02-10T04:24:10.575Z,63.3
2019-02-10T04:25:00.883Z,63.3
2019-02-10T04:25:50.437Z,63.3
2019-02-10T04:26:40.678Z,63.2
2019-02-10T04:27:30.764Z,63.2
2019-02-10T04:28:20.577Z,63.2
2019-02-10T04:29:10.880Z,63.2
2019-02-10T04:30:01.278Z,63.2
2019-02-10T04:30:51.248Z,63.2
2019-02-10T04:31:41.329Z,63.2
2019-02-10T04:32:31.404Z,63.2
2019-02-10T04:33:21.458Z,63.2
2019-02-10T04:34:11.612Z,63.1
2019-02-10T04:35:00.777Z,63.1
2019-02-10T04:35:51.339Z,63.1
2019-02-10T04:36:41.104Z,63.1
2019-02-10T04:37:31.149Z,63.1
2019-02-10T04:38:21.494Z,63.1
2019-02-10T04:39:11.578Z,63.1
2019-02-10T04:40:01.905Z,63.1
2019-02-10T04:40:51.672Z,63.1
2019-02-10T04:41:41.242Z,63.1
2019-02-10T04:42:31.244Z,63.1
2019-02-10T04:43:21.834Z,63.1
2019-02-10T04:44:11.352Z,63.1
2019-02-10T04:45:02.137Z,63.1
2019-02-10T04:45:51.752Z,63.1
2019-02-10T04:46:41.519Z,63.1
2019-02-10T04:47:32.416Z,63.1
2019-02-10T04:48:21.669Z,63.1
2019-02-10T04:49:12.256Z,63
2019-02-10T04:50:02.063Z,63.1
2019-02-10T04:50:52.362Z,63
2019-02-10T04:51:42.447Z,63
2019-02-10T04:52:32.464Z,63
2019-02-10T04:53:22.834Z,63
2019-02-10T04:54:12.604Z,63
2019-02-10T04:55:02.549Z,63
2019-02-10T04:55:52.993Z,63
2019-02-10T04:56:42.787Z,63
2019-02-10T04:57:32.855Z,63
2019-02-10T04:58:22.896Z,63
2019-02-10T04:59:12.945Z,62.9
2019-02-10T05:00:02.987Z,62.9
2019-02-10T05:00:53.305Z,62.9
2019-02-10T05:01:43.113Z,62.9
2019-02-10T05:02:33.226Z,62.9
2019-02-10T05:03:22.667Z,62.9
2019-02-10T05:04:13.013Z,62.9
2019-02-10T05:05:03.401Z,62.9
2019-02-10T05:05:53.425Z,62.9
2019-02-10T05:06:43.563Z,62.9
2019-02-10T05:07:33.513Z,62.9
2019-02-10T05:08:23.822Z,62.9
2019-02-10T05:09:13.631Z,62.9
2019-02-10T05:10:03.821Z,62.9
2019-02-10T05:10:53.773Z,62.9
2019-02-10T05:11:44.117Z,62.9
2019-02-10T05:12:33.862Z,62.9
2019-02-10T05:13:23.640Z,62.9
2019-02-10T05:14:13.382Z,62.8
2019-02-10T05:15:04.017Z,62.8
2019-02-10T05:15:54.138Z,62.8
2019-02-10T05:16:46.466Z,62.8
2019-02-10T05:17:34.209Z,62.8
2019-02-10T05:18:24.530Z,62.8
2019-02-10T05:19:14.358Z,62.8
2019-02-10T05:20:04.760Z,62.8
2019-02-10T05:20:54.148Z,62.8
2019-02-10T05:21:44.221Z,62.8
2019-02-10T05:22:34.537Z,62.8
2019-02-10T05:23:24.332Z,62.8
2019-02-10T05:24:15.039Z,62.8
2019-02-10T05:25:05.022Z,62.8
2019-02-10T05:25:55.074Z,62.8
2019-02-10T05:26:44.539Z,62.8
2019-02-10T05:27:35.189Z,62.8
2019-02-10T05:28:25.240Z,62.8
2019-02-10T05:29:14.750Z,62.8
2019-02-10T05:30:04.609Z,62.8
2019-02-10T05:30:55.164Z,62.7
2019-02-10T05:31:44.993Z,62.7
2019-02-10T05:32:35.280Z,62.7
2019-02-10T05:33:25.444Z,62.7
2019-02-10T05:34:15.655Z,62.7
2019-02-10T05:35:05.494Z,62.7
2019-02-10T05:35:55.469Z,62.7
2019-02-10T05:36:45.300Z,62.7
2019-02-10T05:37:35.895Z,62.6
2019-02-10T05:38:25.893Z,62.6
2019-02-10T05:39:15.983Z,62.6
2019-02-10T05:40:05.489Z,62.6
2019-02-10T05:40:56.073Z,62.6
2019-02-10T05:41:46.171Z,62.6
2019-02-10T05:42:35.981Z,62.6
2019-02-10T05:43:26.278Z,62.6
2019-02-10T05:44:16.370Z,62.6
2019-02-10T05:45:06.406Z,62.6
2019-02-10T05:45:56.211Z,62.6
2019-02-10T05:46:46.220Z,62.6
2019-02-10T05:47:36.313Z,62.6
2019-02-10T05:48:26.341Z,62.6
2019-02-10T05:49:16.114Z,62.6
2019-02-10T05:50:06.446Z,62.6
2019-02-10T05:50:56.496Z,62.6
2019-02-10T05:51:46.605Z,62.6
2019-02-10T05:52:36.915Z,62.5
2019-02-10T05:53:26.649Z,62.5
2019-02-10T05:54:16.718Z,62.5
2019-02-10T05:55:06.858Z,62.5
2019-02-10T05:55:57.124Z,62.5
2019-02-10T05:56:46.897Z,62.5
2019-02-10T05:57:37.220Z,62.5
2019-02-10T05:58:26.445Z,62.5
2019-02-10T05:59:17.055Z,62.4
2019-02-10T06:00:07.414Z,62.4
2019-02-10T06:00:56.682Z,62.4
2019-02-10T06:01:47.497Z,62.4
2019-02-10T06:02:37.552Z,62.4
2019-02-10T06:03:27.395Z,62.4
2019-02-10T06:04:17.694Z,62.4
2019-02-10T06:06:15.397Z,62.4
2019-02-10T06:07:05.381Z,62.4
2019-02-10T06:07:55.706Z,62.4
2019-02-10T06:08:45.669Z,62.4
2019-02-10T06:09:34.853Z,62.4
2019-02-10T06:10:25.424Z,62.4
2019-02-10T06:11:15.403Z,62.4
2019-02-10T06:12:05.791Z,62.4
2019-02-10T06:12:55.745Z,62.4
2019-02-10T06:13:45.641Z,62.4
2019-02-10T06:14:35.984Z,62.3
2019-02-10T06:15:26.029Z,62.3
2019-02-10T06:16:15.806Z,62.3
2019-02-10T06:17:05.637Z,62.3
2019-02-10T06:17:55.909Z,62.3
2019-02-10T06:18:45.971Z,62.3
2019-02-10T06:19:36.194Z,62.3
2019-02-10T06:20:26.074Z,62.3
2019-02-10T06:21:17.071Z,62.3
2019-02-10T06:22:20.581Z,62.3
2019-02-10T06:22:56.721Z,62.3
2019-02-10T06:23:46.323Z,62.3
2019-02-10T06:24:36.346Z,62.3
2019-02-10T06:25:26.436Z,62.3
2019-02-10T06:26:16.491Z,62.3
2019-02-10T06:27:06.299Z,62.3
2019-02-10T06:27:56.893Z,62.2
2019-02-10T06:28:45.559Z,62.2
2019-02-10T06:29:36.166Z,62.2
2019-02-10T06:30:26.776Z,62.2
2019-02-10T06:31:16.558Z,62.2
2019-02-10T06:32:06.653Z,62.2
2019-02-10T06:32:56.940Z,62.2
2019-02-10T06:33:46.991Z,62.1
2019-02-10T06:34:36.217Z,62.2
2019-02-10T06:35:26.374Z,62.1
2019-02-10T06:36:18.961Z,62.1
2019-02-10T06:37:06.729Z,62.1
2019-02-10T06:37:56.470Z,62.1
2019-02-10T06:38:46.827Z,62.1
2019-02-10T06:39:37.751Z,62.1
2019-02-10T06:40:26.922Z,62.1
2019-02-10T06:41:17.785Z,62.1
2019-02-10T06:42:07.297Z,62.1
2019-02-10T06:42:57.075Z,62.1
2019-02-10T06:43:47.668Z,62.1
2019-02-10T06:44:36.896Z,62.1
2019-02-10T06:45:27.786Z,62.1
2019-02-10T06:46:17.423Z,62.1
2019-02-10T06:47:07.147Z,62.1
2019-02-10T06:47:58.999Z,62.1
2019-02-10T06:48:47.805Z,62
2019-02-10T06:49:37.839Z,62
2019-02-10T06:50:28.411Z,62
2019-02-10T06:51:17.924Z,62
2019-02-10T06:52:08.515Z,62
2019-02-10T06:52:58.029Z,62
2019-02-10T06:53:48.089Z,62
2019-02-10T06:54:38.171Z,62
2019-02-10T06:55:27.924Z,62
2019-02-10T06:56:18.814Z,62
2019-02-10T06:57:08.864Z,62
2019-02-10T06:57:58.374Z,61.9
2019-02-10T06:58:49.771Z,61.9
2019-02-10T06:59:38.766Z,61.9
2019-02-10T07:00:29.098Z,61.9
2019-02-10T07:01:18.621Z,61.9
2019-02-10T07:02:08.643Z,61.9
2019-02-10T07:02:58.736Z,61.9
2019-02-10T07:03:48.496Z,61.9
2019-02-10T07:06:14.226Z,61.9
2019-02-10T07:07:05.403Z,61.9
2019-02-10T07:07:55.218Z,61.9
2019-02-10T07:08:45.005Z,61.9
2019-02-10T07:09:35.329Z,61.8
2019-02-10T07:10:25.073Z,61.9
2019-02-10T07:11:14.288Z,61.8
2019-02-10T07:12:04.913Z,61.8
2019-02-10T07:12:55.796Z,61.8
2019-02-10T07:13:45.860Z,61.8
2019-02-10T07:14:35.925Z,61.8
2019-02-10T07:15:25.745Z,61.8
2019-02-10T07:16:15.490Z,61.8
2019-02-10T07:17:05.533Z,61.8
2019-02-10T07:17:55.865Z,61.8
2019-02-10T07:18:45.635Z,61.8
2019-02-10T07:19:36.022Z,61.8
2019-02-10T07:20:26.302Z,61.8
2019-02-10T07:21:15.860Z,61.8
2019-02-10T07:22:05.893Z,61.8
2019-02-10T07:22:56.232Z,61.8
2019-02-10T07:23:46.590Z,61.8
2019-02-10T07:24:36.082Z,61.7
2019-02-10T07:25:26.657Z,61.7
2019-02-10T07:26:16.182Z,61.7
2019-02-10T07:27:06.495Z,61.7
2019-02-10T07:27:56.552Z,61.7
2019-02-10T07:28:46.614Z,61.7
2019-02-10T07:29:36.410Z,61.6
2019-02-10T07:30:26.711Z,61.7
2019-02-10T07:31:16.839Z,61.6
2019-02-10T07:32:06.307Z,61.6
2019-02-10T07:32:56.918Z,61.6
2019-02-10T07:33:46.975Z,61.6
2019-02-10T07:34:37.030Z,61.6
2019-02-10T07:35:27.194Z,61.6
2019-02-10T07:36:16.599Z,61.6
2019-02-10T07:37:07.537Z,61.6
2019-02-10T07:37:57.557Z,61.6
2019-02-10T07:38:47.021Z,61.6
2019-02-10T07:39:37.383Z,61.6
2019-02-10T07:40:26.602Z,61.6
2019-02-10T07:41:16.979Z,61.6
2019-02-10T07:42:07.818Z,61.6
2019-02-10T07:42:57.071Z,61.6
2019-02-10T07:43:47.463Z,61.6
2019-02-10T07:44:37.721Z,61.6
2019-02-10T07:45:27.266Z,61.6
2019-02-10T07:46:17.568Z,61.5
2019-02-10T07:47:07.333Z,61.5
2019-02-10T07:47:58.833Z,61.5
2019-02-10T07:48:47.815Z,61.5
2019-02-10T07:49:37.875Z,61.5
2019-02-10T07:50:27.645Z,61.5
2019-02-10T07:51:18.190Z,61.5
2019-02-10T07:52:07.750Z,61.5
2019-02-10T07:52:57.828Z,61.4
2019-02-10T07:53:47.873Z,61.4
2019-02-10T07:54:45.657Z,61.4
2019-02-10T07:55:27.433Z,61.4
2019-02-10T07:56:18.550Z,61.4
2019-02-10T07:57:08.125Z,61.4
2019-02-10T07:57:58.155Z,61.4
2019-02-10T07:58:48.217Z,61.4
2019-02-10T07:59:38.535Z,61.4
2019-02-10T08:00:28.632Z,61.4
2019-02-10T08:01:18.405Z,61.4
2019-02-10T08:02:08.934Z,61.4
2019-02-10T08:02:58.235Z,61.4
2019-02-10T08:03:48.565Z,61.4
2019-02-10T08:04:38.902Z,61.3
2019-02-10T08:05:28.942Z,61.3
2019-02-10T08:06:18.462Z,61.3
2019-02-10T08:07:10.690Z,61.3
2019-02-10T08:07:58.849Z,61.3
2019-02-10T08:08:51.329Z,61.3
2019-02-10T08:09:38.917Z,61.3
2019-02-10T08:10:29.274Z,61.3
2019-02-10T08:11:19.009Z,61.3
2019-02-10T08:12:09.898Z,61.3
2019-02-10T08:12:59.416Z,61.3
2019-02-10T08:13:49.462Z,61.3
2019-02-10T08:14:39.805Z,61.3
2019-02-10T08:15:29.086Z,61.3
2019-02-10T08:16:19.649Z,61.3
2019-02-10T08:17:09.977Z,61.3
2019-02-10T08:17:58.651Z,61.3
2019-02-10T08:18:50.351Z,61.3
2019-02-10T08:19:40.416Z,61.3
2019-02-10T08:20:30.191Z,61.3
2019-02-10T08:21:20.588Z,61.2
2019-02-10T08:22:10.601Z,61.2
2019-02-10T08:22:59.542Z,61.2
2019-02-10T08:23:50.426Z,61.2
2019-02-10T08:24:39.926Z,61.2
2019-02-10T08:25:30.796Z,61.2
2019-02-10T08:26:20.898Z,61.2
2019-02-10T08:27:10.943Z,61.2
2019-02-10T08:28:00.788Z,61.2
2019-02-10T08:28:50.302Z,61.1
2019-02-10T08:29:42.421Z,61.1
2019-02-10T08:30:30.890Z,61.1
2019-02-10T08:31:20.665Z,61.1
2019-02-10T08:32:11.005Z,61.1
2019-02-10T08:33:00.790Z,61.1
2019-02-10T08:33:51.130Z,61.1
2019-02-10T08:34:39.867Z,61.1
2019-02-10T08:35:32.288Z,61.1
2019-02-10T08:36:21.010Z,61.1
2019-02-10T08:37:11.088Z,61.1
2019-02-10T08:38:00.872Z,61.1
2019-02-10T08:38:59.205Z,61.1
2019-02-10T08:39:41.255Z,61.1
2019-02-10T08:40:31.132Z,61.1
2019-02-10T08:41:21.666Z,61.1
2019-02-10T08:42:11.423Z,61.1
2019-02-10T08:43:02.034Z,61.1
2019-02-10T08:43:51.537Z,61
2019-02-10T08:44:41.872Z,61
2019-02-10T08:45:31.382Z,61
2019-02-10T08:46:21.994Z,61
2019-02-10T08:47:12.044Z,61
2019-02-10T08:48:02.444Z,61
2019-02-10T08:48:52.172Z,61
2019-02-10T08:49:41.897Z,61
2019-02-10T08:50:31.767Z,61
2019-02-10T08:51:22.066Z,60.9
2019-02-10T08:52:12.402Z,60.9
2019-02-10T08:53:01.913Z,60.9
2019-02-10T08:53:52.236Z,60.9
2019-02-10T08:54:42.579Z,61
2019-02-10T08:55:32.406Z,61
2019-02-10T08:56:22.704Z,61.1
2019-02-10T08:57:12.767Z,61.1
2019-02-10T08:58:02.074Z,61.1
2019-02-10T08:58:52.608Z,61.1
2019-02-10T08:59:42.661Z,61.1
2019-02-10T09:00:32.498Z,61.2
2019-02-10T09:01:22.521Z,61.2
2019-02-10T09:02:13.373Z,61.3
2019-02-10T09:03:03.446Z,61.3
2019-02-10T09:03:53.009Z,61.4
2019-02-10T09:04:43.285Z,61.4
2019-02-10T09:05:33.070Z,61.4
2019-02-10T09:06:22.583Z,61.5
2019-02-10T09:07:15.319Z,61.5
2019-02-10T09:08:03.834Z,61.6
2019-02-10T09:08:53.851Z,61.6
2019-02-10T09:09:43.650Z,61.7
2019-02-10T09:10:33.443Z,61.7
2019-02-10T09:11:23.496Z,61.8
2019-02-10T09:12:13.849Z,61.8
2019-02-10T09:13:03.869Z,61.9
2019-02-10T09:13:53.990Z,61.9
2019-02-10T09:14:43.430Z,61.9
2019-02-10T09:15:34.296Z,61.9
2019-02-10T09:16:23.612Z,62
2019-02-10T09:17:14.155Z,62.1
2019-02-10T09:18:04.230Z,62.1
2019-02-10T09:18:54.274Z,62.1
2019-02-10T09:19:44.044Z,62.2
2019-02-10T09:20:34.110Z,62.3
2019-02-10T09:21:23.887Z,62.4
2019-02-10T09:22:14.500Z,62.4
2019-02-10T09:23:04.830Z,62.4
2019-02-10T09:23:54.877Z,62.5
2019-02-10T09:24:44.117Z,62.6
2019-02-10T09:25:34.999Z,62.7
2019-02-10T09:26:24.500Z,62.7
2019-02-10T09:27:14.832Z,62.8
2019-02-10T09:28:04.891Z,62.8
2019-02-10T09:28:55.227Z,62.9
2019-02-10T09:29:44.802Z,62.9
2019-02-10T09:30:34.532Z,63
2019-02-10T09:31:25.421Z,63.1
2019-02-10T09:32:14.911Z,63.1
2019-02-10T09:33:04.689Z,63.1
2019-02-10T09:33:55.029Z,63.2
2019-02-10T09:34:45.089Z,63.3
2019-02-10T09:35:35.421Z,63.4
2019-02-10T09:36:25.520Z,63.4
2019-02-10T09:37:15.042Z,63.5
2019-02-10T09:38:05.036Z,63.6
2019-02-10T09:38:55.429Z,63.6
2019-02-10T09:39:45.444Z,63.7
2019-02-10T09:40:35.793Z,63.8
2019-02-10T09:41:26.111Z,63.9
2019-02-10T09:42:15.623Z,63.9
2019-02-10T09:43:05.674Z,63.9
2019-02-10T09:43:55.450Z,64.1
2019-02-10T09:44:45.794Z,64.1
2019-02-10T09:45:35.828Z,64.1
2019-02-10T09:46:26.520Z,64.3
2019-02-10T09:47:15.953Z,64.3
2019-02-10T09:48:06.303Z,64.3
2019-02-10T09:48:56.620Z,64.4
2019-02-10T09:49:46.185Z,64.4
2019-02-10T09:50:35.928Z,64.6
2019-02-10T09:51:26.788Z,64.6
2019-02-10T09:52:16.291Z,64.7
2019-02-10T09:53:06.437Z,64.8
2019-02-10T09:53:56.725Z,64.8
2019-02-10T09:54:46.740Z,64.9
2019-02-10T09:55:36.820Z,64.9
2019-02-10T09:56:26.879Z,65
2019-02-10T09:57:16.370Z,65.1
2019-02-10T09:58:06.698Z,65.2
2019-02-10T09:58:57.317Z,65.2
2019-02-10T09:59:46.822Z,65.3
2019-02-10T10:00:37.178Z,65.3
2019-02-10T10:01:27.243Z,65.4
2019-02-10T10:02:17.317Z,65.4
2019-02-10T10:03:07.620Z,65.5
2019-02-10T10:03:57.666Z,65.6
2019-02-10T10:04:47.455Z,65.6
2019-02-10T10:07:15.223Z,65.8
2019-02-10T10:08:05.018Z,65.8
2019-02-10T10:08:55.344Z,65.9
2019-02-10T10:09:45.387Z,65.9
2019-02-10T10:10:34.904Z,66
2019-02-10T10:11:25.497Z,66.1
2019-02-10T10:12:15.017Z,66.1
2019-02-10T10:13:05.649Z,66.2
2019-02-10T10:13:55.114Z,66.3
2019-02-10T10:14:45.191Z,66.3
2019-02-10T10:15:35.797Z,66.3
2019-02-10T10:16:25.577Z,66.4
2019-02-10T10:17:15.633Z,66.4
2019-02-10T10:18:05.426Z,66.5
2019-02-10T10:18:55.484Z,66.6
2019-02-10T10:19:45.519Z,66.6
2019-02-10T10:20:36.133Z,66.6
2019-02-10T10:21:25.403Z,66.7
2019-02-10T10:22:15.975Z,66.7
2019-02-10T10:23:05.516Z,66.7
2019-02-10T10:23:56.131Z,66.8
2019-02-10T10:24:54.188Z,66.8
2019-02-10T10:25:36.185Z,66.8
2019-02-10T10:26:26.553Z,66.8
2019-02-10T10:27:16.343Z,66.7
2019-02-10T10:28:06.701Z,66.8
2019-02-10T10:28:56.450Z,66.8
2019-02-10T10:29:46.765Z,66.8
2019-02-10T10:30:36.819Z,66.8
2019-02-10T10:31:26.883Z,66.7
2019-02-10T10:32:16.963Z,66.7
2019-02-10T10:33:06.720Z,66.7
2019-02-10T10:33:56.573Z,66.7
2019-02-10T10:34:46.830Z,66.7
2019-02-10T10:35:36.887Z,66.7
2019-02-10T10:36:27.271Z,66.7
2019-02-10T10:37:17.414Z,66.7
2019-02-10T10:38:07.068Z,66.7
2019-02-10T10:38:57.126Z,66.7
2019-02-10T10:39:47.184Z,66.7
2019-02-10T10:40:37.373Z,66.7
2019-02-10T10:41:27.611Z,66.7
2019-02-10T10:42:17.378Z,66.7
2019-02-10T10:43:07.753Z,66.7
2019-02-10T10:43:57.760Z,66.7
2019-02-10T10:44:47.818Z,66.7
2019-02-10T10:45:37.861Z,66.6
2019-02-10T10:46:27.926Z,66.7
2019-02-10T10:47:17.978Z,66.6
2019-02-10T10:48:07.763Z,66.6
2019-02-10T10:48:57.833Z,66.6
2019-02-10T10:49:47.896Z,66.6
2019-02-10T10:50:38.215Z,66.6
2019-02-10T10:51:27.991Z,66.6
2019-02-10T10:52:18.048Z,66.6
2019-02-10T10:53:07.890Z,66.6
2019-02-10T10:53:58.215Z,66.6
2019-02-10T10:54:48.502Z,66.6
2019-02-10T10:55:38.308Z,66.6
2019-02-10T10:56:28.637Z,66.6
2019-02-10T10:57:20.387Z,66.6
2019-02-10T10:58:08.732Z,66.6
2019-02-10T10:58:58.787Z,66.6
2019-02-10T10:59:48.830Z,66.6
2019-02-10T11:00:38.632Z,66.6
2019-02-10T11:01:30.515Z,66.5
2019-02-10T11:02:19.012Z,66.5
2019-02-10T11:03:09.077Z,66.6
2019-02-10T11:03:59.142Z,66.5
2019-02-10T11:04:49.217Z,66.5
2019-02-10T11:05:38.982Z,66.5
2019-02-10T11:06:29.325Z,66.5
2019-02-10T11:07:19.097Z,66.5
2019-02-10T11:08:08.880Z,66.5
2019-02-10T11:08:59.262Z,66.4
2019-02-10T11:09:49.540Z,66.4
2019-02-10T11:10:39.614Z,66.4
2019-02-10T11:11:29.659Z,66.4
2019-02-10T11:12:18.675Z,66.4
2019-02-10T11:13:09.789Z,66.4
2019-02-10T11:13:59.816Z,66.4
2019-02-10T11:14:49.899Z,66.4
2019-02-10T11:15:39.684Z,66.4
2019-02-10T11:16:29.649Z,66.4
2019-02-10T11:17:19.811Z,66.4
2019-02-10T11:18:09.589Z,66.4
2019-02-10T11:18:59.716Z,66.4
2019-02-10T11:19:50.033Z,66.4
2019-02-10T11:20:39.813Z,66.4
2019-02-10T11:21:29.358Z,66.4
2019-02-10T11:22:19.365Z,66.3
2019-02-10T11:23:09.724Z,66.4
2019-02-10T11:24:00.528Z,66.4
2019-02-10T11:24:50.091Z,66.3
2019-02-10T11:25:39.618Z,66.3
2019-02-10T11:26:30.208Z,66.4
2019-02-10T11:27:20.344Z,66.4
2019-02-10T11:28:10.038Z,66.4
2019-02-10T11:29:00.375Z,66.4
2019-02-10T11:29:50.158Z,66.4
2019-02-10T11:30:40.513Z,66.5
2019-02-10T11:31:30.586Z,66.5
2019-02-10T11:32:20.635Z,66.5
2019-02-10T11:33:10.405Z,66.6
2019-02-10T11:34:00.725Z,66.6
2019-02-10T11:34:49.970Z,66.6
2019-02-10T11:35:40.624Z,66.6
2019-02-10T11:36:30.905Z,66.6
2019-02-10T11:37:29.137Z,66.6
2019-02-10T11:38:11.045Z,66.7
2019-02-10T11:39:01.091Z,66.6
2019-02-10T11:39:51.150Z,66.7
2019-02-10T11:40:40.632Z,66.7
2019-02-10T11:41:30.978Z,66.7
2019-02-10T11:42:21.329Z,66.7
2019-02-10T11:43:11.362Z,66.7
2019-02-10T11:44:00.592Z,66.7
2019-02-10T11:44:51.212Z,66.7
2019-02-10T11:45:41.544Z,66.7
2019-02-10T11:46:31.029Z,66.7
2019-02-10T11:47:21.387Z,66.7
2019-02-10T11:48:12.305Z,66.7
2019-02-10T11:49:01.774Z,66.7
2019-02-10T11:49:51.559Z,66.7
2019-02-10T11:50:41.954Z,66.7
2019-02-10T11:51:31.413Z,66.6
2019-02-10T11:52:21.989Z,66.7
2019-02-10T11:53:11.774Z,66.7
2019-02-10T11:54:01.834Z,66.6
2019-02-10T11:54:51.931Z,66.7
2019-02-10T11:55:42.244Z,66.7
2019-02-10T11:56:32.299Z,66.7
2019-02-10T11:57:22.080Z,66.7
2019-02-10T11:58:12.403Z,66.7
2019-02-10T11:59:17.343Z,66.7
2019-02-10T11:59:52.534Z,66.8
2019-02-10T12:00:42.627Z,66.8
2019-02-10T12:01:32.438Z,66.8
2019-02-10T12:02:22.613Z,66.8
2019-02-10T12:03:12.968Z,66.8
2019-02-10T12:04:42.153Z,66.8
2019-02-10T12:07:14.585Z,66.8
2019-02-10T12:08:04.324Z,66.8
2019-02-10T12:08:54.928Z,66.8
2019-02-10T12:09:59.380Z,66.8
2019-02-10T12:10:35.038Z,66.8
2019-02-10T12:11:39.757Z,66.8
2019-02-10T12:12:14.943Z,66.8
2019-02-10T12:13:05.499Z,66.8
2019-02-10T12:13:55.556Z,66.8
2019-02-10T12:14:45.088Z,66.8
2019-02-10T12:15:35.070Z,66.8
2019-02-10T12:16:24.608Z,66.8
2019-02-10T12:17:15.427Z,66.8
2019-02-10T12:18:05.290Z,66.8
2019-02-10T12:18:55.885Z,66.8
2019-02-10T12:19:45.128Z,66.8
2019-02-10T12:20:35.800Z,66.8
2019-02-10T12:21:25.225Z,66.8
2019-02-10T12:22:15.568Z,66.8
2019-02-10T12:23:20.567Z,66.8
2019-02-10T12:23:56.037Z,66.8
2019-02-10T12:24:45.753Z,66.8
2019-02-10T12:25:36.392Z,66.8
2019-02-10T12:26:25.900Z,66.8
2019-02-10T12:27:16.475Z,66.8
2019-02-10T12:28:05.717Z,66.8
2019-02-10T12:28:56.047Z,66.8
2019-02-10T12:29:46.100Z,66.8
2019-02-10T12:30:36.159Z,66.8
2019-02-10T12:31:26.539Z,66.8
2019-02-10T12:32:16.541Z,66.8
2019-02-10T12:33:06.369Z,66.8
2019-02-10T12:33:56.752Z,66.8
2019-02-10T12:34:46.761Z,66.8
2019-02-10T12:35:36.219Z,66.8
2019-02-10T12:36:27.364Z,66.8
2019-02-10T12:37:16.669Z,66.8
2019-02-10T12:38:06.996Z,66.8
2019-02-10T12:38:57.244Z,66.8
2019-02-10T12:39:46.537Z,66.8
2019-02-10T12:40:37.502Z,66.8
2019-02-10T12:41:27.621Z,66.8
2019-02-10T12:42:16.687Z,66.8
2019-02-10T12:43:07.617Z,66.8
2019-02-10T12:43:57.124Z,66.8
2019-02-10T12:44:47.708Z,66.8
2019-02-10T12:45:37.217Z,66.8
2019-02-10T12:46:27.558Z,66.8
2019-02-10T12:47:17.337Z,66.8
2019-02-10T12:48:13.939Z,66.8
2019-02-10T12:48:57.723Z,66.8
2019-02-10T12:49:48.420Z,66.8
2019-02-10T12:50:37.563Z,66.8
2019-02-10T12:51:27.888Z,66.8
2019-02-10T12:52:17.993Z,66.8
2019-02-10T12:53:08.276Z,66.8
2019-02-10T12:53:58.071Z,66.8
2019-02-10T12:54:47.555Z,66.7
2019-02-10T12:55:38.178Z,66.8
2019-02-10T12:56:28.252Z,66.7
2019-02-10T12:57:17.228Z,66.7
2019-02-10T12:58:08.079Z,66.7
2019-02-10T12:58:58.145Z,66.7
2019-02-10T12:59:48.740Z,66.7
2019-02-10T13:00:40.360Z,66.7
2019-02-10T13:01:27.737Z,66.7
2019-02-10T13:02:18.365Z,66.7
2019-02-10T13:03:08.990Z,66.7
2019-02-10T13:03:58.807Z,66.7
2019-02-10T13:04:49.107Z,66.7
2019-02-10T13:05:38.616Z,66.6
2019-02-10T13:06:28.682Z,66.7
2019-02-10T13:07:18.164Z,66.6
2019-02-10T13:08:09.059Z,66.6
2019-02-10T13:08:59.394Z,66.6
2019-02-10T13:09:49.174Z,66.6
2019-02-10T13:10:39.227Z,66.6
2019-02-10T13:11:29.562Z,66.6
2019-02-10T13:12:19.354Z,66.6
2019-02-10T13:13:08.589Z,66.6
2019-02-10T13:13:59.169Z,66.6
2019-02-10T13:14:48.956Z,66.6
2019-02-10T13:15:39.309Z,66.6
2019-02-10T13:16:29.907Z,66.6
2019-02-10T13:17:19.696Z,66.6
2019-02-10T13:18:10.044Z,66.6
2019-02-10T13:19:00.081Z,66.6
2019-02-10T13:19:49.034Z,66.6
2019-02-10T13:20:39.646Z,66.6
2019-02-10T13:21:29.421Z,66.5
2019-02-10T13:22:19.825Z,66.5
2019-02-10T13:23:09.554Z,66.5
2019-02-10T13:23:59.878Z,66.5
2019-02-10T13:24:50.226Z,66.5
2019-02-10T13:25:40.565Z,66.5
2019-02-10T13:26:29.638Z,66.5
2019-02-10T13:27:19.848Z,66.5
2019-02-10T13:28:09.899Z,66.4
2019-02-10T13:29:00.506Z,66.4
2019-02-10T13:29:50.298Z,66.4
2019-02-10T13:30:40.914Z,66.4
2019-02-10T13:31:30.158Z,66.4
2019-02-10T13:32:20.468Z,66.4
2019-02-10T13:33:10.733Z,66.4
2019-02-10T13:34:01.131Z,66.4
2019-02-10T13:34:51.579Z,66.4
2019-02-10T13:35:41.253Z,66.4
2019-02-10T13:36:30.763Z,66.4
2019-02-10T13:37:21.117Z,66.4
2019-02-10T13:38:11.158Z,66.4
2019-02-10T13:39:00.930Z,66.4
2019-02-10T13:39:51.273Z,66.4
2019-02-10T13:40:41.627Z,66.4
2019-02-10T13:41:31.385Z,66.4
2019-02-10T13:42:21.452Z,66.4
2019-02-10T13:43:11.219Z,66.3
2019-02-10T13:44:01.277Z,66.4
2019-02-10T13:44:51.674Z,66.3
2019-02-10T13:45:41.469Z,66.3
2019-02-10T13:46:32.010Z,66.3
2019-02-10T13:47:22.067Z,66.3
2019-02-10T13:48:11.585Z,66.3
2019-02-10T13:49:01.350Z,66.3
2019-02-10T13:49:51.960Z,66.3
2019-02-10T13:50:42.033Z,66.3
2019-02-10T13:51:32.142Z,66.3
2019-02-10T13:52:21.317Z,66.3
2019-02-10T13:53:13.412Z,66.3
2019-02-10T13:54:02.537Z,66.3
2019-02-10T13:54:52.338Z,66.3
2019-02-10T13:55:42.382Z,66.3
2019-02-10T13:56:32.709Z,66.3
2019-02-10T13:57:21.746Z,66.3
2019-02-10T13:58:12.277Z,66.2
2019-02-10T13:59:02.626Z,66.2
2019-02-10T13:59:52.404Z,66.2
2019-02-10T14:00:42.720Z,66.2
2019-02-10T14:01:32.588Z,66.2
2019-02-10T14:02:22.564Z,66.2
2019-02-10T14:03:11.591Z,66.2
2019-02-10T14:04:02.969Z,66.1
2019-02-10T14:04:53.036Z,66.1
2019-02-10T14:05:43.353Z,66.2
2019-02-10T14:08:14.713Z,66.1
2019-02-10T14:09:04.186Z,66.1
2019-02-10T14:09:54.826Z,66.1
2019-02-10T14:10:44.689Z,66.1
2019-02-10T14:11:34.749Z,66.1
2019-02-10T14:12:24.505Z,66.1
2019-02-10T14:13:15.025Z,66.1
2019-02-10T14:14:05.380Z,66.1
2019-02-10T14:14:54.900Z,66.1
2019-02-10T14:15:44.935Z,66.1
2019-02-10T14:16:35.083Z,66.1
2019-02-10T14:17:24.776Z,66.1
2019-02-10T14:18:15.465Z,66
2019-02-10T14:19:04.950Z,66
2019-02-10T14:19:55.510Z,66
2019-02-10T14:20:45.555Z,65.9
2019-02-10T14:21:35.641Z,65.9
2019-02-10T14:22:25.182Z,65.9
2019-02-10T14:23:15.470Z,65.9
2019-02-10T14:24:05.802Z,65.9
2019-02-10T14:24:55.858Z,65.9